Time;durP1;ratioP1;P1;durP2;ratioP2;P2;SDS_P1;SDS_P2;PMS_P1;PMS_P2;Temp;Humidity;BMP_temperature;BMP_pressure;BME280_temperature;BME280_humidity;BME280_pressure;Samples;Min_cycle;Max_cycle;Signal;HPM_P1;HPM_P2
2021/04/23 00:01:04;;;;;;;1.35;0.20;;;23.30;35.80;;;;;;5062097;28;20033;-43
2021/04/23 00:03:40;;;;;;;1.20;0.20;;;23.30;35.80;;;;;;5046570;28;20024;-44
2021/04/23 00:06:26;;;;;;;1.08;0.20;;;23.30;35.80;;;;;;5059690;28;20055;-47
2021/04/23 00:09:02;;;;;;;0.43;0.10;;;23.20;35.70;;;;;;5029448;28;20117;-47
2021/04/23 00:11:33;;;;;;;0.68;0.20;;;23.30;35.80;;;;;;5046928;28;20309;-47
2021/04/23 00:13:59;;;;;;;1.40;0.20;;;23.30;35.80;;;;;;5043688;28;20041;-47
2021/04/23 00:16:25;;;;;;;0.60;0.20;;;23.20;35.70;;;;;;5065465;28;20035;-47
2021/04/23 00:18:51;;;;;;;0.47;0.20;;;23.20;35.80;;;;;;5033199;28;20029;-48
2021/04/23 00:21:20;;;;;;;0.63;0.22;;;23.20;35.70;;;;;;5048337;28;20060;-45
2021/04/23 00:23:46;;;;;;;1.70;0.40;;;23.20;35.70;;;;;;5044682;28;20033;-44
2021/04/23 00:26:12;;;;;;;1.00;0.20;;;23.20;35.70;;;;;;5068334;28;20031;-44
2021/04/23 00:28:38;;;;;;;0.85;0.20;;;23.20;35.70;;;;;;5041952;28;20025;-43
2021/04/23 00:31:05;;;;;;;1.20;0.20;;;23.10;35.70;;;;;;5056906;28;20052;-45
2021/04/23 00:33:31;;;;;;;0.40;0.10;;;23.20;35.70;;;;;;5045418;28;20108;-47
2021/04/23 00:35:57;;;;;;;0.40;0.13;;;23.20;35.70;;;;;;5059013;28;20109;-45
2021/04/23 00:38:25;;;;;;;0.73;0.30;;;23.10;35.70;;;;;;5034031;28;20112;-49
2021/04/23 00:41:04;;;;;;;1.15;0.30;;;23.10;35.70;;;;;;5032069;28;20029;-44
2021/04/23 00:43:34;;;;;;;1.10;0.20;;;23.10;35.70;;;;;;5037961;28;20101;-47
2021/04/23 00:45:59;;;;;;;0.90;0.25;;;23.10;35.70;;;;;;5059751;28;20410;-43
2021/04/23 00:48:28;;;;;;;0.50;0.10;;;23.10;35.70;;;;;;5054992;28;20231;-43
2021/04/23 00:51:05;;;;;;;1.00;0.20;;;23.10;35.80;;;;;;5035085;28;20033;-46
2021/04/23 00:53:34;;;;;;;0.95;0.20;;;23.10;35.70;;;;;;5055850;28;20025;-46
2021/04/23 00:56:03;;;;;;;0.60;0.10;;;23.10;35.60;;;;;;5063480;28;20033;-45
2021/04/23 00:58:30;;;;;;;0.50;0.15;;;23.10;35.70;;;;;;5050245;28;20037;-44
2021/04/23 01:01:08;;;;;;;1.48;0.20;;;23.00;35.60;;;;;;5051072;28;20036;-46
2021/04/23 01:03:35;;;;;;;0.93;0.15;;;23.00;35.60;;;;;;5047084;28;20108;-43
2021/04/23 01:06:06;;;;;;;1.10;0.20;;;23.00;35.70;;;;;;5061128;28;20434;-47
2021/04/23 01:08:32;;;;;;;0.50;0.10;;;23.00;35.60;;;;;;5063870;28;20434;-44
2021/04/23 01:10:59;;;;;;;2.40;0.20;;;23.00;35.70;;;;;;5037114;28;20061;-44
2021/04/23 01:13:30;;;;;;;0.60;0.17;;;23.00;35.60;;;;;;5057762;28;20059;-43
2021/04/23 01:16:07;;;;;;;0.90;0.20;;;23.00;35.70;;;;;;5062387;28;20036;-45
2021/04/23 01:18:34;;;;;;;1.35;0.20;;;23.00;35.60;;;;;;5037169;28;20033;-46
2021/04/23 01:21:11;;;;;;;0.70;0.20;;;22.90;35.60;;;;;;5031840;28;20040;-49
2021/04/23 01:23:38;;;;;;;0.60;0.28;;;23.00;35.60;;;;;;5048805;28;20028;-47
2021/04/23 01:26:05;;;;;;;0.70;0.22;;;22.90;35.60;;;;;;5069845;28;20029;-44
2021/04/23 01:28:31;;;;;;;2.65;0.25;;;22.90;35.60;;;;;;5058277;28;20029;-47
2021/04/23 01:30:58;;;;;;;0.52;0.20;;;22.90;35.60;;;;;;5047521;28;20159;-47
2021/04/23 01:33:25;;;;;;;0.50;0.20;;;22.90;35.60;;;;;;5040813;28;20040;-43
2021/04/23 01:35:51;;;;;;;0.38;0.17;;;22.90;35.60;;;;;;5061808;28;20089;-50
2021/04/23 01:38:17;;;;;;;2.50;0.35;;;22.90;35.60;;;;;;5056054;28;20617;-46
2021/04/23 01:40:44;;;;;;;0.82;0.20;;;22.90;35.60;;;;;;5067316;28;20362;-45
2021/04/23 01:43:10;;;;;;;1.77;0.20;;;22.90;35.60;;;;;;5054881;28;20115;-48
2021/04/23 01:45:36;;;;;;;0.60;0.20;;;22.90;35.60;;;;;;5066074;28;20036;-44
2021/04/23 01:48:02;;;;;;;0.80;0.10;;;22.90;35.80;;;;;;5058281;28;20501;-46
2021/04/23 01:50:28;;;;;;;1.42;0.30;;;22.80;35.60;;;;;;5056241;28;20159;-43
2021/04/23 01:52:54;;;;;;;2.05;0.40;;;22.80;35.60;;;;;;5037756;28;20116;-49
2021/04/23 01:55:22;;;;;;;1.27;0.22;;;22.80;35.60;;;;;;5032633;28;20032;-46
2021/04/23 01:57:49;;;;;;;1.45;0.57;;;22.80;35.60;;;;;;5050220;28;20073;-46
2021/04/23 02:00:23;;;;;;;0.52;0.10;;;22.80;35.60;;;;;;5052455;28;20534;-46
2021/04/23 02:02:53;;;;;;;0.88;0.30;;;22.80;35.60;;;;;;5054466;28;20033;-47
2021/04/23 02:05:19;;;;;;;0.60;0.20;;;22.80;35.60;;;;;;5054542;28;20608;-45
2021/04/23 02:07:45;;;;;;;0.80;0.20;;;22.80;35.60;;;;;;5061041;28;20037;-49
2021/04/23 02:10:17;;;;;;;0.90;0.40;;;22.80;35.60;;;;;;5051465;28;20070;-44
2021/04/23 02:12:43;;;;;;;0.65;0.22;;;22.80;35.60;;;;;;5050299;28;20037;-44
2021/04/23 02:15:11;;;;;;;0.85;0.20;;;22.70;35.60;;;;;;5059373;28;20497;-46
2021/04/23 02:17:37;;;;;;;1.42;0.40;;;22.70;35.50;;;;;;5060110;28;20087;-47
2021/04/23 02:20:07;;;;;;;0.88;0.20;;;22.70;35.60;;;;;;5046863;28;20029;-46
2021/04/23 02:22:33;;;;;;;1.40;0.20;;;22.70;36.10;;;;;;5055998;28;20032;-44
2021/04/23 02:24:59;;;;;;;0.90;0.20;;;22.70;35.60;;;;;;5065967;28;20455;-45
2021/04/23 02:27:24;;;;;;;1.15;0.30;;;22.70;35.60;;;;;;5048140;28;20032;-45
2021/04/23 02:29:50;;;;;;;2.03;0.40;;;22.70;35.60;;;;;;5036667;28;20390;-47
2021/04/23 02:32:16;;;;;;;0.50;0.20;;;22.70;35.60;;;;;;5045665;28;20062;-44
2021/04/23 02:34:41;;;;;;;0.50;0.20;;;22.70;35.60;;;;;;5066159;28;20056;-45
2021/04/23 02:37:07;;;;;;;2.20;0.20;;;22.60;35.60;;;;;;5043229;28;20043;-44
2021/04/23 02:39:32;;;;;;;2.97;0.20;;;22.70;35.60;;;;;;5032844;28;20040;-44
2021/04/23 02:41:59;;;;;;;0.40;0.20;;;22.60;35.50;;;;;;5060869;28;20028;-45
2021/04/23 02:44:25;;;;;;;0.75;0.30;;;22.60;35.60;;;;;;5050985;28;20047;-46
2021/04/23 02:46:52;;;;;;;1.35;0.35;;;22.60;36.10;;;;;;5043017;28;20486;-45
2021/04/23 02:49:18;;;;;;;0.80;0.20;;;22.60;35.50;;;;;;5039101;28;20041;-47
2021/04/23 02:51:46;;;;;;;0.60;0.20;;;22.60;35.60;;;;;;5033212;28;20045;-43
2021/04/23 02:54:13;;;;;;;0.80;0.20;;;22.60;35.60;;;;;;5047275;28;20060;-45
2021/04/23 02:56:40;;;;;;;7.32;0.40;;;22.60;35.60;;;;;;5049733;28;20486;-47
2021/04/23 02:59:07;;;;;;;0.95;0.38;;;22.60;35.60;;;;;;5051168;28;20043;-46
2021/04/23 03:01:43;;;;;;;0.77;0.20;;;22.60;35.60;;;;;;5054205;28;20033;-47
2021/04/23 03:04:09;;;;;;;1.30;0.22;;;22.60;35.50;;;;;;5052441;28;20555;-47
2021/04/23 03:06:35;;;;;;;0.60;0.20;;;22.60;35.60;;;;;;5054035;28;20063;-46
2021/04/23 03:09:02;;;;;;;0.73;0.20;;;22.50;35.50;;;;;;5048244;28;20114;-46
2021/04/23 03:11:28;;;;;;;0.90;0.30;;;22.60;35.60;;;;;;5035203;28;20037;-48
2021/04/23 03:13:57;;;;;;;0.90;0.15;;;22.50;35.50;;;;;;5047102;28;20037;-43
2021/04/23 03:16:24;;;;;;;0.60;0.22;;;22.50;35.50;;;;;;5045866;28;20029;-50
2021/04/23 03:18:51;;;;;;;0.90;0.20;;;22.50;35.50;;;;;;5048917;28;20114;-46
2021/04/23 03:21:18;;;;;;;0.50;0.20;;;22.50;35.50;;;;;;5049624;28;20093;-48
2021/04/23 03:23:45;;;;;;;2.53;0.10;;;22.50;35.50;;;;;;5047769;28;20021;-45
2021/04/23 03:26:14;;;;;;;1.10;0.20;;;22.50;35.50;;;;;;5045258;28;20034;-45
2021/04/23 03:28:41;;;;;;;1.23;0.22;;;22.50;35.50;;;;;;5033545;28;20036;-45
2021/04/23 03:31:08;;;;;;;0.85;0.20;;;22.50;35.50;;;;;;5037521;28;20029;-45
2021/04/23 03:33:34;;;;;;;0.85;0.20;;;22.50;35.50;;;;;;5057407;28;20456;-48
2021/04/23 03:36:04;;;;;;;1.10;0.38;;;22.40;35.50;;;;;;5049155;28;20055;-44
2021/04/23 03:38:31;;;;;;;0.52;0.20;;;22.40;35.50;;;;;;5058253;28;20433;-45
2021/04/23 03:40:58;;;;;;;0.65;0.20;;;22.40;35.40;;;;;;5063430;28;20028;-44
2021/04/23 03:43:24;;;;;;;0.80;0.25;;;22.40;35.40;;;;;;5059615;28;20028;-45
2021/04/23 03:45:51;;;;;;;1.42;0.40;;;22.40;35.50;;;;;;5056332;28;20024;-43
2021/04/23 03:48:17;;;;;;;0.65;0.20;;;22.40;35.50;;;;;;5039833;28;20041;-46
2021/04/23 03:50:44;;;;;;;0.75;0.25;;;22.40;35.50;;;;;;5030680;28;20039;-43
2021/04/23 03:53:12;;;;;;;0.65;0.20;;;22.40;35.50;;;;;;5039823;28;20040;-45
2021/04/23 03:55:47;;;;;;;3.42;0.20;;;22.40;35.40;;;;;;5047922;28;20036;-46
2021/04/23 03:58:14;;;;;;;0.90;0.30;;;22.40;35.40;;;;;;5034593;28;20036;-44
2021/04/23 04:00:53;;;;;;;0.82;0.20;;;22.40;35.50;;;;;;5053648;28;20045;-47
2021/04/23 04:03:19;;;;;;;2.70;0.28;;;22.30;35.40;;;;;;5047741;28;20021;-45
2021/04/23 04:05:46;;;;;;;0.63;0.30;;;22.30;35.40;;;;;;5038777;28;20150;-47
2021/04/23 04:08:12;;;;;;;2.53;0.35;;;22.30;35.40;;;;;;5043795;28;20085;-43
2021/04/23 04:10:39;;;;;;;0.98;0.30;;;22.30;35.30;;;;;;5043061;28;20021;-45
2021/04/23 04:13:05;;;;;;;1.42;0.30;;;22.40;35.40;;;;;;5048903;28;20069;-42
2021/04/23 04:15:31;;;;;;;1.15;0.35;;;22.40;35.40;;;;;;5063435;28;20025;-46
2021/04/23 04:17:57;;;;;;;1.40;0.20;;;22.30;35.30;;;;;;5030651;28;20032;-44
2021/04/23 04:20:25;;;;;;;0.65;0.22;;;22.30;35.30;;;;;;5043532;28;20028;-46
2021/04/23 04:22:51;;;;;;;2.47;0.40;;;22.30;35.30;;;;;;5050490;28;20032;-45
2021/04/23 04:25:23;;;;;;;0.75;0.40;;;22.30;35.30;;;;;;5051411;28;20021;-48
2021/04/23 04:27:49;;;;;;;2.40;0.40;;;22.30;35.30;;;;;;5044754;28;20025;-48
2021/04/23 04:30:15;;;;;;;1.10;0.32;;;22.20;35.30;;;;;;5061799;28;20032;-45
2021/04/23 04:32:40;;;;;;;1.55;0.30;;;22.30;35.30;;;;;;5047637;28;20037;-47
2021/04/23 04:35:07;;;;;;;1.33;0.50;;;22.30;35.30;;;;;;5043138;28;20063;-48
2021/04/23 04:37:32;;;;;;;1.20;0.52;;;22.30;35.30;;;;;;5041633;28;20025;-47
2021/04/23 04:39:58;;;;;;;0.60;0.40;;;22.20;35.30;;;;;;5031310;28;20034;-45
2021/04/23 04:42:25;;;;;;;1.90;0.47;;;22.20;35.30;;;;;;5045791;28;20486;-45
2021/04/23 04:44:50;;;;;;;0.90;0.40;;;22.20;35.30;;;;;;5061415;28;20082;-45
2021/04/23 04:47:16;;;;;;;3.80;0.30;;;22.20;35.30;;;;;;5040123;28;20033;-44
2021/04/23 04:49:42;;;;;;;0.80;0.20;;;22.20;35.30;;;;;;5047239;28;20033;-46
2021/04/23 04:52:08;;;;;;;1.73;0.35;;;22.20;35.30;;;;;;5048879;28;20026;-44
2021/04/23 04:54:33;;;;;;;1.15;0.20;;;22.20;35.30;;;;;;5066302;28;20404;-44
2021/04/23 04:56:59;;;;;;;1.80;0.30;;;22.20;35.30;;;;;;5051941;28;20044;-43
2021/04/23 04:59:24;;;;;;;1.08;0.30;;;22.20;35.30;;;;;;5053140;28;20037;-43
2021/04/23 05:01:50;;;;;;;0.93;0.40;;;22.20;35.30;;;;;;5063087;28;20036;-48
2021/04/23 05:04:16;;;;;;;1.13;0.30;;;22.20;35.30;;;;;;5061869;28;20032;-42
2021/04/23 05:06:41;;;;;;;1.38;0.30;;;22.10;35.30;;;;;;5049160;28;20407;-45
2021/04/23 05:09:07;;;;;;;2.15;0.40;;;22.10;35.30;;;;;;5051997;28;20082;-45
2021/04/23 05:11:33;;;;;;;0.63;0.20;;;22.10;35.30;;;;;;5035488;28;20048;-47
2021/04/23 05:13:59;;;;;;;0.75;0.20;;;22.20;35.30;;;;;;5053016;28;20028;-48
2021/04/23 05:16:25;;;;;;;0.52;0.20;;;22.20;35.40;;;;;;5069156;28;20030;-46
2021/04/23 05:18:51;;;;;;;0.95;0.30;;;22.10;35.30;;;;;;5044067;28;20061;-43
2021/04/23 05:21:16;;;;;;;0.30;0.20;;;22.10;35.30;;;;;;5072308;28;20016;-44
2021/04/23 05:23:42;;;;;;;0.77;0.30;;;22.20;35.30;;;;;;5042824;28;20032;-45
2021/04/23 05:26:08;;;;;;;0.98;0.25;;;22.10;35.30;;;;;;5065129;28;20104;-46
2021/04/23 05:28:34;;;;;;;1.60;0.32;;;22.10;35.30;;;;;;5036853;28;20128;-44
2021/04/23 05:31:00;;;;;;;0.68;0.35;;;22.10;35.30;;;;;;5047771;28;20111;-45
2021/04/23 05:33:25;;;;;;;1.25;0.50;;;22.10;35.30;;;;;;5041063;28;20856;-42
2021/04/23 05:35:51;;;;;;;0.90;0.32;;;22.10;35.30;;;;;;5055867;28;20087;-45
2021/04/23 05:38:16;;;;;;;0.80;0.30;;;22.10;35.40;;;;;;5045882;28;20112;-47
2021/04/23 05:40:45;;;;;;;3.42;0.88;;;22.10;35.30;;;;;;5034567;28;20041;-44
2021/04/23 05:43:11;;;;;;;1.42;0.40;;;22.10;35.30;;;;;;5054443;28;20048;-43
2021/04/23 05:45:40;;;;;;;1.38;0.40;;;22.10;35.30;;;;;;5063621;28;20381;-45
2021/04/23 05:48:07;;;;;;;0.98;0.50;;;22.10;35.30;;;;;;5054953;28;20478;-48
2021/04/23 05:50:33;;;;;;;2.63;0.55;;;22.10;35.30;;;;;;5032052;28;20371;-42
2021/04/23 05:52:59;;;;;;;1.65;0.57;;;22.10;35.30;;;;;;5036836;28;20026;-44
2021/04/23 05:55:25;;;;;;;2.13;0.30;;;22.10;35.20;;;;;;5053739;28;20025;-44
2021/04/23 05:57:56;;;;;;;1.02;0.30;;;22.10;35.20;;;;;;5049696;28;20033;-47
2021/04/23 06:00:24;;;;;;;0.85;0.47;;;22.10;35.20;;;;;;5058717;28;20032;-48
2021/04/23 06:02:50;;;;;;;0.50;0.20;;;22.10;35.20;;;;;;5058733;28;20121;-48
2021/04/23 06:05:18;;;;;;;6.10;0.45;;;22.10;35.10;;;;;;5045011;28;20029;-47
2021/04/23 06:07:44;;;;;;;1.00;0.32;;;22.10;35.10;;;;;;5051056;28;20029;-45
2021/04/23 06:10:11;;;;;;;2.50;0.50;;;22.10;34.60;;;;;;5049556;28;20108;-44
2021/04/23 06:12:37;;;;;;;2.42;0.50;;;22.30;35.00;;;;;;5053605;28;20112;-45
2021/04/23 06:15:05;;;;;;;1.73;0.60;;;22.40;34.90;;;;;;5055234;28;20073;-45
2021/04/23 06:17:30;;;;;;;0.47;0.20;;;22.60;35.20;;;;;;5057676;28;20054;-45
2021/04/23 06:19:56;;;;;;;2.70;0.50;;;22.70;34.50;;;;;;5053845;28;20037;-44
2021/04/23 06:22:22;;;;;;;2.55;0.47;;;22.80;34.30;;;;;;5057092;28;20034;-46
2021/04/23 06:24:47;;;;;;;2.08;0.57;;;22.90;34.10;;;;;;5051932;28;20032;-47
2021/04/23 06:27:14;;;;;;;0.93;0.40;;;23.00;34.00;;;;;;5055703;28;20441;-45
2021/04/23 06:29:39;;;;;;;2.08;0.50;;;23.00;33.90;;;;;;5043622;28;20025;-47
2021/04/23 06:32:06;;;;;;;1.30;0.40;;;23.10;33.80;;;;;;5037553;28;20483;-46
2021/04/23 06:34:31;;;;;;;1.90;0.50;;;23.10;33.70;;;;;;5038146;28;20088;-44
2021/04/23 06:36:57;;;;;;;1.45;0.40;;;23.20;33.70;;;;;;5046183;28;20032;-42
2021/04/23 06:39:22;;;;;;;1.25;0.45;;;23.20;33.70;;;;;;5058883;28;20112;-44
2021/04/23 06:41:48;;;;;;;1.50;0.30;;;23.20;33.60;;;;;;5041993;28;20485;-42
2021/04/23 06:44:15;;;;;;;1.40;0.47;;;23.30;33.70;;;;;;5054597;28;20016;-46
2021/04/23 06:46:42;;;;;;;0.98;0.47;;;23.30;33.70;;;;;;5055383;28;20029;-47
2021/04/23 06:49:08;;;;;;;2.45;0.60;;;23.30;33.80;;;;;;5064702;28;20029;-43
2021/04/23 06:51:36;;;;;;;1.52;0.47;;;23.30;33.90;;;;;;5057606;28;20024;-43
2021/04/23 06:54:04;;;;;;;1.88;0.30;;;23.30;33.90;;;;;;5046146;28;20528;-44
2021/04/23 06:56:29;;;;;;;2.72;0.47;;;23.30;33.90;;;;;;5054646;28;20039;-45
2021/04/23 06:58:55;;;;;;;2.92;0.60;;;23.30;34.00;;;;;;5049756;28;20397;-47
2021/04/23 07:01:21;;;;;;;2.17;0.30;;;23.30;34.00;;;;;;5044416;28;20021;-45
2021/04/23 07:03:46;;;;;;;1.02;0.50;;;23.20;34.00;;;;;;5044382;28;20043;-45
2021/04/23 07:06:12;;;;;;;2.95;0.45;;;23.20;34.10;;;;;;5047818;28;20398;-46
2021/04/23 07:08:38;;;;;;;0.90;0.30;;;23.20;34.10;;;;;;5042262;28;20033;-44
2021/04/23 07:11:04;;;;;;;1.17;0.50;;;23.20;34.10;;;;;;5036687;28;20029;-44
2021/04/23 07:13:30;;;;;;;3.47;0.73;;;23.10;34.00;;;;;;5040748;28;20033;-43
2021/04/23 07:15:55;;;;;;;1.60;0.60;;;23.10;34.00;;;;;;5047825;28;20043;-48
2021/04/23 07:18:21;;;;;;;2.67;0.50;;;23.20;34.10;;;;;;5032441;28;20044;-48
2021/04/23 07:20:47;;;;;;;1.05;0.45;;;23.10;34.20;;;;;;5058771;28;21470;-46
2021/04/23 07:23:13;;;;;;;1.77;0.68;;;23.10;34.20;;;;;;5029955;28;20032;-44
2021/04/23 07:25:39;;;;;;;1.88;0.47;;;23.10;34.30;;;;;;5036209;28;20494;-43
2021/04/23 07:28:05;;;;;;;1.15;0.40;;;23.10;34.40;;;;;;5065956;28;20151;-46
2021/04/23 07:30:35;;;;;;;1.63;0.50;;;23.10;34.40;;;;;;5047583;28;20037;-45
2021/04/23 07:33:04;;;;;;;2.30;0.63;;;23.10;34.40;;;;;;5043498;28;20039;-52
2021/04/23 07:35:29;;;;;;;1.75;0.30;;;23.10;34.50;;;;;;5051934;28;20025;-47
2021/04/23 07:37:56;;;;;;;1.67;0.40;;;23.20;34.70;;;;;;5044532;28;20078;-49
2021/04/23 07:40:22;;;;;;;1.02;0.40;;;23.20;35.00;;;;;;5049022;28;20632;-46
2021/04/23 07:42:48;;;;;;;9.02;0.68;;;23.30;35.50;;;;;;5042030;28;20047;-46
2021/04/23 07:45:15;;;;;;;1.52;0.30;;;23.20;35.60;;;;;;5044245;28;20043;-47
2021/04/23 07:47:42;;;;;;;4.22;0.73;;;23.20;35.60;;;;;;5043874;28;20029;-49
2021/04/23 07:50:09;;;;;;;1.30;0.57;;;23.30;35.60;;;;;;5052536;28;20485;-49
2021/04/23 07:52:35;;;;;;;2.22;0.50;;;23.30;35.40;;;;;;5056844;28;20032;-49
2021/04/23 07:55:02;;;;;;;1.85;0.32;;;23.30;35.50;;;;;;5047396;28;20617;-49
2021/04/23 07:57:28;;;;;;;4.25;0.93;;;23.30;35.60;;;;;;5045401;28;20094;-48
2021/04/23 07:59:55;;;;;;;1.42;0.60;;;23.30;35.60;;;;;;5049022;28;20401;-48
2021/04/23 08:02:21;;;;;;;2.30;0.40;;;23.30;35.70;;;;;;5051789;28;20112;-46
2021/04/23 08:04:46;;;;;;;1.67;0.30;;;23.30;36.00;;;;;;5040786;28;20132;-42
2021/04/23 08:07:12;;;;;;;2.25;0.55;;;23.30;36.00;;;;;;5042796;28;20021;-41
2021/04/23 08:09:39;;;;;;;1.52;0.60;;;23.30;35.80;;;;;;5053244;28;20504;-44
2021/04/23 08:12:06;;;;;;;1.98;0.63;;;23.30;35.90;;;;;;5057679;28;20579;-48
2021/04/23 08:14:31;;;;;;;3.17;0.47;;;23.30;35.90;;;;;;5048021;28;20091;-45
2021/04/23 08:16:57;;;;;;;2.35;0.77;;;23.30;35.70;;;;;;5047825;28;20025;-43
2021/04/23 08:19:22;;;;;;;2.47;0.60;;;23.30;35.80;;;;;;5061431;28;20029;-45
2021/04/23 08:21:48;;;;;;;2.72;0.30;;;23.30;35.80;;;;;;5056178;28;20630;-48
2021/04/23 08:24:14;;;;;;;1.13;0.73;;;23.30;35.70;;;;;;5043496;28;20036;-48
2021/04/23 08:26:42;;;;;;;1.83;0.40;;;23.30;35.80;;;;;;5048252;28;20025;-48
2021/04/23 08:29:08;;;;;;;1.05;0.30;;;23.30;35.80;;;;;;5055189;28;20210;-51
2021/04/23 08:31:34;;;;;;;0.80;0.22;;;23.30;35.90;;;;;;5049385;28;20089;-49
2021/04/23 08:33:59;;;;;;;1.38;0.30;;;23.30;35.70;;;;;;5056276;28;20048;-49
2021/04/23 08:36:25;;;;;;;0.98;0.38;;;23.40;36.20;;;;;;5053892;28;20025;-49
2021/04/23 08:38:50;;;;;;;4.90;0.28;;;23.40;36.00;;;;;;5045188;28;20032;-50
2021/04/23 08:41:16;;;;;;;1.55;0.60;;;23.40;35.90;;;;;;5054123;28;20029;-47
2021/04/23 08:43:42;;;;;;;2.47;0.30;;;23.40;35.90;;;;;;5048927;28;20134;-47
2021/04/23 08:46:07;;;;;;;1.25;0.20;;;23.40;36.00;;;;;;5047913;28;20721;-44
2021/04/23 08:48:33;;;;;;;1.42;0.40;;;23.40;35.90;;;;;;5042124;28;20030;-51
2021/04/23 08:51:00;;;;;;;1.63;0.60;;;23.40;35.90;;;;;;5043801;28;20024;-51
2021/04/23 08:53:27;;;;;;;2.50;0.50;;;23.40;35.90;;;;;;5046711;28;20028;-44
2021/04/23 08:55:55;;;;;;;0.98;0.22;;;23.40;36.00;;;;;;5049901;28;20409;-48
2021/04/23 08:58:21;;;;;;;1.77;0.47;;;23.40;35.80;;;;;;5039434;28;20029;-47
2021/04/23 09:00:47;;;;;;;3.75;0.47;;;23.50;36.10;;;;;;5050946;28;20053;-47
2021/04/23 09:03:18;;;;;;;1.23;0.40;;;23.50;36.50;;;;;;5048949;28;20052;-43
2021/04/23 09:06:12;;;;;;;1.88;0.32;;;23.50;37.10;;;;;;5046022;28;20441;-45
2021/04/23 09:08:56;;;;;;;1.23;0.20;;;23.60;36.80;;;;;;5048651;28;20028;-47
2021/04/23 09:11:25;;;;;;;2.83;0.17;;;23.60;36.90;;;;;;5057626;28;20505;-48
2021/04/23 09:13:52;;;;;;;0.82;0.30;;;23.60;37.10;;;;;;5051066;28;20043;-48
2021/04/23 09:16:20;;;;;;;1.48;0.30;;;23.60;37.10;;;;;;5048505;28;20041;-49
2021/04/23 09:18:46;;;;;;;2.05;0.30;;;23.60;37.40;;;;;;5039875;28;20033;-48
2021/04/23 09:21:14;;;;;;;1.05;0.28;;;23.60;37.50;;;;;;5045949;28;20029;-47
2021/04/23 09:23:53;;;;;;;0.63;0.20;;;23.60;37.30;;;;;;5043970;28;20017;-48
2021/04/23 09:26:37;;;;;;;1.15;0.35;;;23.60;37.40;;;;;;5049073;28;20021;-47
2021/04/23 09:29:05;;;;;;;1.33;0.30;;;23.60;37.50;;;;;;5042144;28;20021;-47
2021/04/23 09:31:33;;;;;;;1.85;0.30;;;23.60;37.60;;;;;;5040388;28;20029;-48
2021/04/23 09:34:06;;;;;;;2.55;0.20;;;23.60;37.70;;;;;;5041046;28;20040;-48
2021/04/23 09:36:38;;;;;;;0.80;0.38;;;23.60;37.70;;;;;;5047577;28;20061;-45
2021/04/23 09:39:22;;;;;;;0.77;0.43;;;23.70;37.80;;;;;;5046454;28;20033;-45
2021/04/23 09:41:54;;;;;;;0.93;0.20;;;23.70;37.90;;;;;;5056187;28;20034;-52
2021/04/23 09:44:33;;;;;;;;;;;23.70;38.00;;;;;;5052481;28;20021;-45
2021/04/23 09:47:00;;;;;;;2.17;0.28;;;23.70;37.90;;;;;;5049570;28;20339;-49
2021/04/23 09:49:27;;;;;;;0.60;0.20;;;23.70;38.00;;;;;;5045636;28;20103;-45
2021/04/23 09:51:52;;;;;;;2.55;0.30;;;23.70;38.20;;;;;;5048582;28;20033;-49
2021/04/23 09:54:21;;;;;;;1.13;0.30;;;23.80;38.40;;;;;;5052440;28;20029;-46
2021/04/23 09:56:48;;;;;;;0.60;0.15;;;23.80;38.40;;;;;;5052065;28;20056;-47
2021/04/23 09:59:30;;;;;;;0.80;0.30;;;23.80;38.30;;;;;;5046688;28;20029;-43
2021/04/23 10:02:15;;;;;;;6.75;0.30;;;23.90;37.10;;;;;;5047590;28;20056;-45
2021/04/23 10:04:41;;;;;;;1.02;0.30;;;23.80;38.20;;;;;;5044945;28;20030;-46
2021/04/23 10:07:28;;;;;;;0.60;0.32;;;23.80;38.30;;;;;;5042857;28;20402;-48
2021/04/23 10:10:00;;;;;;;0.93;0.20;;;23.90;38.50;;;;;;5052137;28;20532;-44
2021/04/23 10:12:54;;;;;;;1.17;0.22;;;23.90;38.70;;;;;;5054876;28;20029;-49
2021/04/23 10:15:27;;;;;;;2.15;0.20;;;23.90;38.60;;;;;;5046208;28;20033;-51
2021/04/23 10:18:05;;;;;;;1.25;0.20;;;23.90;38.50;;;;;;5053482;28;20089;-45
2021/04/23 10:20:43;;;;;;;1.42;0.30;;;23.90;38.50;;;;;;5058023;28;20389;-49
2021/04/23 10:23:11;;;;;;;1.13;0.30;;;24.00;38.60;;;;;;5044620;28;20029;-50
2021/04/23 10:25:37;;;;;;;0.68;0.22;;;24.00;38.70;;;;;;5051064;28;20413;-48
2021/04/23 10:28:09;;;;;;;0.95;0.20;;;23.90;38.60;;;;;;5045240;28;20024;-51
2021/04/23 10:30:37;;;;;;;1.60;0.28;;;23.90;38.40;;;;;;5056201;28;20390;-49
2021/04/23 10:33:06;;;;;;;1.00;0.25;;;23.90;38.30;;;;;;5054899;28;20033;-47
2021/04/23 10:35:32;;;;;;;1.40;0.38;;;23.90;37.90;;;;;;5042003;28;20448;-47
2021/04/23 10:38:07;;;;;;;1.02;0.20;;;23.90;37.80;;;;;;5059807;28;20427;-49
2021/04/23 10:40:34;;;;;;;0.63;0.15;;;23.90;37.80;;;;;;5045671;28;20031;-45
2021/04/23 10:43:18;;;;;;;0.52;0.20;;;24.00;38.20;;;;;;5046061;28;20034;-45
2021/04/23 10:45:49;;;;;;;0.47;0.15;;;24.00;38.30;;;;;;5042291;28;20759;-47
2021/04/23 10:48:15;;;;;;;;;;;24.00;38.60;;;;;;5048866;28;20016;-44
2021/04/23 10:50:47;;;;;;;1.20;0.13;;;24.00;38.50;;;;;;5052212;28;19947;-44
2021/04/23 10:53:16;;;;;;;2.60;0.20;;;24.00;38.70;;;;;;5056213;28;20029;-45
2021/04/23 10:55:55;;;;;;;1.20;0.15;;;24.00;38.80;;;;;;5046362;28;20113;-44
2021/04/23 10:58:26;;;;;;;1.70;0.20;;;24.10;38.70;;;;;;5057197;28;20032;-45
2021/04/23 11:00:54;;;;;;;0.50;0.20;;;24.10;38.60;;;;;;5056670;28;20032;-47
2021/04/23 11:03:20;;;;;;;1.48;0.30;;;24.10;38.60;;;;;;5042052;28;20433;-45
2021/04/23 11:05:46;;;;;;;1.52;0.20;;;24.10;38.60;;;;;;5055043;28;20036;-49
2021/04/23 11:08:12;;;;;;;0.45;0.20;;;24.10;38.70;;;;;;5054266;28;20020;-44
2021/04/23 11:11:00;;;;;;;1.95;0.30;;;24.10;38.40;;;;;;5056578;28;20496;-48
2021/04/23 11:13:27;;;;;;;2.70;0.22;;;24.20;38.30;;;;;;5045040;28;20608;-47
2021/04/23 11:16:18;;;;;;;0.70;0.10;;;24.20;39.00;;;;;;5056500;28;20041;-47
2021/04/23 11:18:44;;;;;;;;;;;24.20;39.30;;;;;;5049186;28;20205;-51
2021/04/23 11:21:32;;;;;;;0.60;0.13;;;24.20;39.40;;;;;;5053203;28;20279;-49
2021/04/23 11:24:20;;;;;;;1.90;0.28;;;24.20;39.30;;;;;;5040175;28;20195;-49
2021/04/23 11:29:23;;;;;;;1.35;0.20;;;24.20;39.50;;;;;;5052053;28;20032;-45
2021/04/23 11:32:16;;;;;;;2.17;0.30;;;24.20;39.40;;;;;;5058168;28;20518;-46
2021/04/23 11:34:48;;;;;;;0.75;0.30;;;24.20;39.40;;;;;;5044014;28;20040;-47
2021/04/23 11:37:15;;;;;;;0.63;0.20;;;24.20;39.20;;;;;;5047936;28;20033;-49
2021/04/23 11:39:46;;;;;;;1.20;0.20;;;24.30;39.40;;;;;;5052430;28;20024;-49
2021/04/23 11:42:26;;;;;;;1.38;0.10;;;24.20;39.40;;;;;;5060456;28;20020;-50
2021/04/23 11:45:12;;;;;;;0.30;0.10;;;24.30;39.70;;;;;;5050529;28;20704;-48
2021/04/23 11:47:45;;;;;;;2.65;0.20;;;24.30;39.90;;;;;;5051156;28;20033;-49
2021/04/23 11:50:31;;;;;;;0.40;0.20;;;24.30;40.20;;;;;;5044799;28;20029;-51
2021/04/23 11:53:12;;;;;;;1.88;0.20;;;24.30;40.30;;;;;;5044785;28;20059;-52
2021/04/23 11:55:43;;;;;;;0.70;0.10;;;24.30;40.30;;;;;;5042383;28;20036;-49
2021/04/23 11:58:15;;;;;;;0.52;0.20;;;24.30;40.20;;;;;;5053988;28;20020;-49
2021/04/23 12:00:43;;;;;;;1.05;0.10;;;24.30;40.20;;;;;;5041652;28;20036;-52
2021/04/23 12:03:11;;;;;;;2.80;0.30;;;24.30;39.80;;;;;;5041318;28;20043;-52
2021/04/23 12:05:41;;;;;;;0.70;0.20;;;24.40;39.90;;;;;;5047236;28;20571;-48
2021/04/23 12:08:09;;;;;;;1.05;0.28;;;24.40;40.00;;;;;;5051934;28;20025;-50
2021/04/23 12:10:39;;;;;;;1.52;0.20;;;24.40;40.10;;;;;;5043760;28;20117;-49
2021/04/23 12:13:25;;;;;;;0.52;0.10;;;24.40;40.20;;;;;;5050854;28;20048;-48
2021/04/23 12:15:58;;;;;;;0.50;0.20;;;24.40;40.30;;;;;;5055642;28;20029;-46
2021/04/23 12:18:24;;;;;;;0.85;0.10;;;24.40;40.20;;;;;;5053973;28;20051;-49
2021/04/23 12:20:55;;;;;;;0.55;0.20;;;24.40;40.10;;;;;;5039505;28;20104;-47
2021/04/23 12:23:26;;;;;;;1.90;0.40;;;24.50;40.10;;;;;;5056524;28;20087;-53
2021/04/23 12:25:58;;;;;;;0.50;0.10;;;24.50;40.20;;;;;;5050398;28;20493;-48
2021/04/23 12:28:25;;;;;;;2.28;0.25;;;24.60;40.00;;;;;;5052730;28;20059;-49
2021/04/23 12:30:55;;;;;;;0.95;0.20;;;24.60;39.90;;;;;;5040881;28;20032;-46
2021/04/23 12:33:21;;;;;;;0.30;0.10;;;24.60;39.90;;;;;;5050298;28;20105;-44
2021/04/23 12:35:49;;;;;;;0.63;0.10;;;24.50;40.00;;;;;;5040823;28;20108;-47
2021/04/23 12:38:33;;;;;;;0.82;0.10;;;24.60;40.10;;;;;;5043245;28;20021;-49
2021/04/23 12:40:59;;;;;;;0.50;0.10;;;24.60;40.30;;;;;;5042708;28;20016;-48
2021/04/23 12:43:25;;;;;;;0.55;0.20;;;24.60;40.00;;;;;;5051475;28;20033;-48
2021/04/23 12:45:56;;;;;;;1.90;0.10;;;24.70;40.20;;;;;;5057772;28;20021;-41
2021/04/23 12:48:23;;;;;;;1.70;0.20;;;24.70;40.10;;;;;;5056160;28;20021;-46
2021/04/23 12:50:51;;;;;;;1.08;0.20;;;24.70;39.40;;;;;;5047077;28;20025;-45
2021/04/23 12:53:23;;;;;;;0.50;0.20;;;24.70;39.50;;;;;;5047981;28;20022;-45
2021/04/23 12:55:49;;;;;;;1.02;0.20;;;24.60;39.40;;;;;;5043508;28;20397;-48
2021/04/23 12:58:15;;;;;;;1.65;0.10;;;24.60;39.20;;;;;;5059512;28;20024;-48